sensor_id;sensor_type;location;lat;lon;timestamp;pressure;altitude;pressure_sealevel;temperature;humidity
596;BME280;19946;49.306;11.350;2023-03-15T00:02:54;95690.50;;;0.08;100.00
596;BME280;19946;49.306;11.350;2023-03-15T00:05:55;95679.50;;;-0.09;100.00
596;BME280;19946;49.306;11.350;2023-03-15T00:08:55;95692.09;;;-0.06;100.00
596;BME280;19946;49.306;11.350;2023-03-15T00:11:55;95697.84;;;-0.02;100.00
596;BME280;19946;49.306;11.350;2023-03-15T00:14:56;95692.44;;;-0.12;100.00
596;BME280;19946;49.306;11.350;2023-03-15T00:17:56;95692.44;;;-0.12;100.00
596;BME280;19946;49.306;11.350;2023-03-15T00:20:57;95672.97;;;-0.28;100.00
596;BME280;19946;49.306;11.350;2023-03-15T00:23:57;95698.66;;;-0.17;100.00
596;BME280;19946;49.306;11.350;2023-03-15T00:26:58;95711.97;;;-0.12;100.00
596;BME280;19946;49.306;11.350;2023-03-15T00:29:58;95715.16;;;-0.09;100.00
596;BME280;19946;49.306;11.350;2023-03-15T00:32:58;95703.91;;;-0.20;100.00
596;BME280;19946;49.306;11.350;2023-03-15T00:36:02;95701.28;;;-0.19;100.00
596;BME280;19946;49.306;11.350;2023-03-15T00:39:05;95725.75;;;-0.01;100.00
596;BME280;19946;49.306;11.350;2023-03-15T00:42:06;95716.41;;;-0.16;100.00
596;BME280;19946;49.306;11.350;2023-03-15T00:45:07;95722.47;;;-0.18;100.00
596;BME280;19946;49.306;11.350;2023-03-15T00:48:07;95694.56;;;-0.35;100.00
596;BME280;19946;49.306;11.350;2023-03-15T00:51:11;95720.66;;;-0.16;100.00
596;BME280;19946;49.306;11.350;2023-03-15T00:54:13;95732.31;;;-0.12;100.00
596;BME280;19946;49.306;11.350;2023-03-15T00:57:13;95728.22;;;-0.15;100.00
596;BME280;19946;49.306;11.350;2023-03-15T01:00:19;95739.97;;;-0.12;100.00
596;BME280;19946;49.306;11.350;2023-03-15T01:03:22;95725.97;;;-0.21;100.00
596;BME280;19946;49.306;11.350;2023-03-15T01:06:25;95735.44;;;-0.23;100.00
596;BME280;19946;49.306;11.350;2023-03-15T01:09:26;95764.84;;;-0.02;100.00
596;BME280;19946;49.306;11.350;2023-03-15T01:12:31;95765.06;;;-0.06;100.00
596;BME280;19946;49.306;11.350;2023-03-15T01:15:31;95760.72;;;-0.04;100.00
596;BME280;19946;49.306;11.350;2023-03-15T01:18:32;95729.22;;;-0.33;100.00
596;BME280;19946;49.306;11.350;2023-03-15T01:21:32;95770.56;;;-0.14;100.00
596;BME280;19946;49.306;11.350;2023-03-15T01:24:33;95741.19;;;-0.35;100.00
596;BME280;19946;49.306;11.350;2023-03-15T01:27:33;95788.38;;;-0.14;100.00
596;BME280;19946;49.306;11.350;2023-03-15T01:30:34;95795.75;;;-0.09;100.00
596;BME280;19946;49.306;11.350;2023-03-15T01:33:35;95790.03;;;-0.13;100.00
596;BME280;19946;49.306;11.350;2023-03-15T01:36:35;95782.72;;;-0.34;100.00
596;BME280;19946;49.306;11.350;2023-03-15T01:39:35;95804.44;;;-0.29;100.00
596;BME280;19946;49.306;11.350;2023-03-15T01:52:17;95801.13;;;-0.80;100.00
596;BME280;19946;49.306;11.350;2023-03-15T01:55:28;95818.94;;;-0.80;100.00
596;BME280;19946;49.306;11.350;2023-03-15T01:58:39;95826.28;;;-0.91;100.00
596;BME280;19946;49.306;11.350;2023-03-15T02:01:42;95863.19;;;-0.84;100.00
596;BME280;19946;49.306;11.350;2023-03-15T02:04:50;95865.59;;;-0.81;100.00
596;BME280;19946;49.306;11.350;2023-03-15T02:07:53;95857.59;;;-0.90;100.00
596;BME280;19946;49.306;11.350;2023-03-15T02:10:56;95868.19;;;-0.82;100.00
596;BME280;19946;49.306;11.350;2023-03-15T02:13:58;95868.19;;;-0.82;100.00
596;BME280;19946;49.306;11.350;2023-03-15T02:17:01;95864.63;;;-0.78;100.00
596;BME280;19946;49.306;11.350;2023-03-15T02:23:16;95860.97;;;-0.90;100.00
596;BME280;19946;49.306;11.350;2023-03-15T02:26:29;95869.09;;;-0.83;100.00
596;BME280;19946;49.306;11.350;2023-03-15T02:29:33;95839.34;;;-1.16;100.00
596;BME280;19946;49.306;11.350;2023-03-15T02:32:33;95860.41;;;-0.96;100.00
596;BME280;19946;49.306;11.350;2023-03-15T02:35:34;95891.16;;;-0.84;100.00
596;BME280;19946;49.306;11.350;2023-03-15T02:38:34;95858.63;;;-1.12;100.00
596;BME280;19946;49.306;11.350;2023-03-15T02:41:37;95900.94;;;-0.93;100.00
596;BME280;19946;49.306;11.350;2023-03-15T02:44:40;95892.72;;;-0.98;100.00
596;BME280;19946;49.306;11.350;2023-03-15T02:47:43;95925.25;;;-0.88;100.00
596;BME280;19946;49.306;11.350;2023-03-15T02:50:43;95912.00;;;-0.94;100.00
596;BME280;19946;49.306;11.350;2023-03-15T02:53:44;95885.81;;;-1.14;100.00
596;BME280;19946;49.306;11.350;2023-03-15T02:56:44;95906.47;;;-1.02;100.00
596;BME280;19946;49.306;11.350;2023-03-15T02:59:45;95942.44;;;-0.93;100.00
596;BME280;19946;49.306;11.350;2023-03-15T03:02:47;95907.56;;;-1.08;100.00
596;BME280;19946;49.306;11.350;2023-03-15T03:05:47;95941.75;;;-0.96;100.00
596;BME280;19946;49.306;11.350;2023-03-15T03:08:48;95938.81;;;-1.06;100.00
596;BME280;19946;49.306;11.350;2023-03-15T03:11:52;95945.69;;;-1.08;100.00
596;BME280;19946;49.306;11.350;2023-03-15T03:14:52;95931.56;;;-1.14;100.00
596;BME280;19946;49.306;11.350;2023-03-15T03:17:56;95980.47;;;-0.91;100.00
596;BME280;19946;49.306;11.350;2023-03-15T03:20:58;95966.50;;;-1.00;100.00
596;BME280;19946;49.306;11.350;2023-03-15T03:23:58;95957.09;;;-1.17;100.00
596;BME280;19946;49.306;11.350;2023-03-15T03:26:59;95994.03;;;-0.91;100.00
596;BME280;19946;49.306;11.350;2023-03-15T03:30:09;95984.88;;;-0.95;100.00
596;BME280;19946;49.306;11.350;2023-03-15T03:33:11;96008.25;;;-0.87;100.00
596;BME280;19946;49.306;11.350;2023-03-15T03:36:13;96010.34;;;-0.96;100.00
596;BME280;19946;49.306;11.350;2023-03-15T03:39:14;96011.34;;;-0.99;100.00
596;BME280;19946;49.306;11.350;2023-03-15T03:42:16;95992.84;;;-1.20;100.00
596;BME280;19946;49.306;11.350;2023-03-15T03:45:17;96047.34;;;-0.89;100.00
596;BME280;19946;49.306;11.350;2023-03-15T03:48:19;96031.38;;;-0.93;100.00
596;BME280;19946;49.306;11.350;2023-03-15T03:51:20;96045.69;;;-0.90;100.00
596;BME280;19946;49.306;11.350;2023-03-15T03:54:20;96039.31;;;-0.99;100.00
596;BME280;19946;49.306;11.350;2023-03-15T03:57:20;96013.97;;;-1.19;100.00
596;BME280;19946;49.306;11.350;2023-03-15T04:00:22;96068.00;;;-0.97;100.00
596;BME280;19946;49.306;11.350;2023-03-15T04:03:22;96078.31;;;-1.00;100.00
596;BME280;19946;49.306;11.350;2023-03-15T04:06:28;96026.66;;;-1.38;100.00
596;BME280;19946;49.306;11.350;2023-03-15T04:09:29;96078.72;;;-1.09;100.00
596;BME280;19946;49.306;11.350;2023-03-15T04:12:30;96046.78;;;-1.33;100.00
596;BME280;19946;49.306;11.350;2023-03-15T04:15:30;96061.91;;;-1.30;100.00
596;BME280;19946;49.306;11.350;2023-03-15T04:18:32;96112.31;;;-1.02;100.00
596;BME280;19946;49.306;11.350;2023-03-15T04:21:33;96070.41;;;-1.31;100.00
596;BME280;19946;49.306;11.350;2023-03-15T04:24:49;96110.84;;;-1.08;100.00
596;BME280;19946;49.306;11.350;2023-03-15T04:28:10;96064.63;;;-1.35;100.00
596;BME280;19946;49.306;11.350;2023-03-15T04:31:25;96088.19;;;-1.31;100.00
596;BME280;19946;49.306;11.350;2023-03-15T04:34:45;96130.50;;;-1.12;100.00
596;BME280;19946;49.306;11.350;2023-03-15T04:38:04;96105.75;;;-1.27;100.00
596;BME280;19946;49.306;11.350;2023-03-15T04:41:20;96133.03;;;-1.12;100.00
596;BME280;19946;49.306;11.350;2023-03-15T04:44:35;96154.25;;;-1.13;100.00
596;BME280;19946;49.306;11.350;2023-03-15T04:47:55;96140.25;;;-1.21;100.00
596;BME280;19946;49.306;11.350;2023-03-15T04:51:09;96161.94;;;-1.14;100.00
596;BME280;19946;49.306;11.350;2023-03-15T04:54:19;96140.84;;;-1.35;100.00
596;BME280;19946;49.306;11.350;2023-03-15T04:57:45;96124.03;;;-1.58;100.00
596;BME280;19946;49.306;11.350;2023-03-15T05:01:01;96136.28;;;-1.47;100.00
596;BME280;19946;49.306;11.350;2023-03-15T05:04:22;96134.44;;;-1.43;100.00
596;BME280;19946;49.306;11.350;2023-03-15T05:07:34;96128.28;;;-1.58;100.00
596;BME280;19946;49.306;11.350;2023-03-15T05:10:57;96131.69;;;-1.59;100.00
596;BME280;19946;49.306;11.350;2023-03-15T05:14:17;96149.25;;;-1.53;100.00
596;BME280;19946;49.306;11.350;2023-03-15T05:17:35;96177.09;;;-1.31;100.00
596;BME280;19946;49.306;11.350;2023-03-15T05:20:54;96207.25;;;-1.24;100.00
596;BME280;19946;49.306;11.350;2023-03-15T05:24:20;96164.91;;;-1.43;100.00
596;BME280;19946;49.306;11.350;2023-03-15T05:27:45;96210.75;;;-1.26;100.00
596;BME280;19946;49.306;11.350;2023-03-15T05:31:08;96212.34;;;-1.24;100.00
596;BME280;19946;49.306;11.350;2023-03-15T05:34:27;96191.81;;;-1.39;100.00
596;BME280;19946;49.306;11.350;2023-03-15T05:37:36;96191.69;;;-1.36;100.00
596;BME280;19946;49.306;11.350;2023-03-15T05:41:03;96216.66;;;-1.26;100.00
596;BME280;19946;49.306;11.350;2023-03-15T05:44:21;96199.44;;;-1.39;100.00
596;BME280;19946;49.306;11.350;2023-03-15T05:47:48;96217.47;;;-1.25;100.00
596;BME280;19946;49.306;11.350;2023-03-15T05:51:07;96227.63;;;-1.25;100.00
596;BME280;19946;49.306;11.350;2023-03-15T05:54:20;96253.09;;;-1.06;100.00
596;BME280;19946;49.306;11.350;2023-03-15T05:57:46;96240.44;;;-1.28;100.00
596;BME280;19946;49.306;11.350;2023-03-15T06:01:07;96264.28;;;-1.11;100.00
596;BME280;19946;49.306;11.350;2023-03-15T06:04:29;96240.06;;;-1.39;100.00
596;BME280;19946;49.306;11.350;2023-03-15T06:07:31;96248.84;;;-1.26;100.00
596;BME280;19946;49.306;11.350;2023-03-15T06:10:38;96235.69;;;-1.56;100.00
596;BME280;19946;49.306;11.350;2023-03-15T06:13:41;96289.50;;;-1.26;100.00
596;BME280;19946;49.306;11.350;2023-03-15T06:16:49;96287.00;;;-1.28;100.00
596;BME280;19946;49.306;11.350;2023-03-15T06:19:51;96265.22;;;-1.54;100.00
596;BME280;19946;49.306;11.350;2023-03-15T06:22:51;96277.53;;;-1.44;100.00
596;BME280;19946;49.306;11.350;2023-03-15T06:26:08;96269.09;;;-1.45;100.00
596;BME280;19946;49.306;11.350;2023-03-15T06:29:09;96292.41;;;-1.35;100.00
596;BME280;19946;49.306;11.350;2023-03-15T06:32:09;96231.69;;;-1.84;100.00
596;BME280;19946;49.306;11.350;2023-03-15T06:35:12;96253.88;;;-1.67;100.00
596;BME280;19946;49.306;11.350;2023-03-15T06:38:12;96246.75;;;-1.79;100.00
596;BME280;19946;49.306;11.350;2023-03-15T06:41:14;96282.16;;;-1.54;100.00
596;BME280;19946;49.306;11.350;2023-03-15T06:44:15;96308.31;;;-1.30;100.00
596;BME280;19946;49.306;11.350;2023-03-15T06:47:15;96312.03;;;-1.19;100.00
596;BME280;19946;49.306;11.350;2023-03-15T06:50:16;96232.97;;;-1.52;100.00
596;BME280;19946;49.306;11.350;2023-03-15T06:53:18;96270.00;;;-1.26;100.00
596;BME280;19946;49.306;11.350;2023-03-15T06:56:18;96280.47;;;-1.33;100.00
596;BME280;19946;49.306;11.350;2023-03-15T06:59:19;96302.78;;;-1.20;100.00
596;BME280;19946;49.306;11.350;2023-03-15T07:02:21;96273.22;;;-1.42;100.00
596;BME280;19946;49.306;11.350;2023-03-15T07:05:21;96269.22;;;-1.48;100.00
596;BME280;19946;49.306;11.350;2023-03-15T07:08:26;96258.03;;;-1.64;100.00
596;BME280;19946;49.306;11.350;2023-03-15T07:11:27;96282.56;;;-1.43;100.00
596;BME280;19946;49.306;11.350;2023-03-15T07:14:27;96322.47;;;-1.25;100.00
596;BME280;19946;49.306;11.350;2023-03-15T07:17:27;96282.06;;;-1.31;100.00
596;BME280;19946;49.306;11.350;2023-03-15T07:20:28;96318.72;;;-1.16;100.00
596;BME280;19946;49.306;11.350;2023-03-15T07:23:29;96279.00;;;-1.39;100.00
596;BME280;19946;49.306;11.350;2023-03-15T07:26:29;96272.59;;;-1.27;100.00
596;BME280;19946;49.306;11.350;2023-03-15T07:29:30;96330.69;;;-0.98;100.00
596;BME280;19946;49.306;11.350;2023-03-15T07:32:31;96252.19;;;-1.46;100.00
596;BME280;19946;49.306;11.350;2023-03-15T07:35:33;96273.25;;;-1.22;100.00
596;BME280;19946;49.306;11.350;2023-03-15T07:38:34;96321.47;;;-1.00;100.00
596;BME280;19946;49.306;11.350;2023-03-15T07:41:35;96279.31;;;-1.26;100.00
596;BME280;19946;49.306;11.350;2023-03-15T07:44:53;96320.09;;;-0.87;100.00
596;BME280;19946;49.306;11.350;2023-03-15T07:47:53;96346.56;;;-0.93;100.00
596;BME280;19946;49.306;11.350;2023-03-15T07:50:54;96303.34;;;-1.13;100.00
596;BME280;19946;49.306;11.350;2023-03-15T07:53:55;96295.22;;;-1.01;100.00
596;BME280;19946;49.306;11.350;2023-03-15T07:56:56;96330.41;;;-0.71;100.00
596;BME280;19946;49.306;11.350;2023-03-15T07:59:56;96312.63;;;-0.92;100.00
596;BME280;19946;49.306;11.350;2023-03-15T08:02:58;96310.97;;;-0.73;100.00
596;BME280;19946;49.306;11.350;2023-03-15T08:05:59;96348.06;;;-0.48;100.00
596;BME280;19946;49.306;11.350;2023-03-15T08:09:02;96354.06;;;-0.30;100.00
596;BME280;19946;49.306;11.350;2023-03-15T08:12:05;96358.63;;;-0.18;100.00
596;BME280;19946;49.306;11.350;2023-03-15T08:15:05;96339.13;;;-0.57;100.00
596;BME280;19946;49.306;11.350;2023-03-15T08:18:06;96315.66;;;-0.63;100.00
596;BME280;19946;49.306;11.350;2023-03-15T08:21:06;96340.56;;;-0.51;100.00
596;BME280;19946;49.306;11.350;2023-03-15T08:24:07;96372.03;;;-0.33;100.00
596;BME280;19946;49.306;11.350;2023-03-15T08:27:07;96363.94;;;-0.23;100.00
596;BME280;19946;49.306;11.350;2023-03-15T08:30:10;96338.06;;;-0.32;100.00
596;BME280;19946;49.306;11.350;2023-03-15T08:33:13;96375.66;;;0.19;100.00
596;BME280;19946;49.306;11.350;2023-03-15T08:36:14;96329.34;;;0.29;100.00
596;BME280;19946;49.306;11.350;2023-03-15T08:39:14;96306.66;;;-0.13;100.00
596;BME280;19946;49.306;11.350;2023-03-15T08:42:15;96377.84;;;0.45;100.00
596;BME280;19946;49.306;11.350;2023-03-15T08:45:15;96389.75;;;0.45;100.00
596;BME280;19946;49.306;11.350;2023-03-15T08:48:16;96369.13;;;0.13;100.00
596;BME280;19946;49.306;11.350;2023-03-15T08:51:16;96370.28;;;0.06;100.00
596;BME280;19946;49.306;11.350;2023-03-15T08:54:16;96388.59;;;0.14;100.00
596;BME280;19946;49.306;11.350;2023-03-15T08:57:17;96365.00;;;0.29;100.00
596;BME280;19946;49.306;11.350;2023-03-15T09:00:18;96390.50;;;1.01;100.00
596;BME280;19946;49.306;11.350;2023-03-15T09:03:22;96361.84;;;1.81;100.00
596;BME280;19946;49.306;11.350;2023-03-15T09:06:23;96357.94;;;1.74;100.00
596;BME280;19946;49.306;11.350;2023-03-15T09:09:23;96395.22;;;2.42;100.00
596;BME280;19946;49.306;11.350;2023-03-15T09:12:24;96403.47;;;2.16;100.00
596;BME280;19946;49.306;11.350;2023-03-15T09:15:24;96387.31;;;2.31;100.00
596;BME280;19946;49.306;11.350;2023-03-15T09:18:24;96390.75;;;2.30;100.00
596;BME280;19946;49.306;11.350;2023-03-15T09:21:25;96412.03;;;1.48;100.00
596;BME280;19946;49.306;11.350;2023-03-15T09:24:26;96422.91;;;0.81;100.00
596;BME280;19946;49.306;11.350;2023-03-15T09:27:29;96419.50;;;0.99;100.00
596;BME280;19946;49.306;11.350;2023-03-15T09:30:30;96407.97;;;1.43;100.00
596;BME280;19946;49.306;11.350;2023-03-15T09:33:31;96429.47;;;1.39;100.00
596;BME280;19946;49.306;11.350;2023-03-15T09:36:32;96384.56;;;1.53;100.00
596;BME280;19946;49.306;11.350;2023-03-15T09:39:33;96403.19;;;1.72;100.00
596;BME280;19946;49.306;11.350;2023-03-15T09:42:41;96357.16;;;1.89;100.00
596;BME280;19946;49.306;11.350;2023-03-15T09:52:34;96414.22;;;2.70;100.00
596;BME280;19946;49.306;11.350;2023-03-15T09:55:36;96401.31;;;2.40;100.00
596;BME280;19946;49.306;11.350;2023-03-15T09:58:38;96381.41;;;1.98;100.00
596;BME280;19946;49.306;11.350;2023-03-15T10:01:40;96396.34;;;2.05;100.00
596;BME280;19946;49.306;11.350;2023-03-15T10:04:42;96340.16;;;2.21;100.00
596;BME280;19946;49.306;11.350;2023-03-15T10:07:43;96348.69;;;1.56;100.00
596;BME280;19946;49.306;11.350;2023-03-15T10:10:51;96419.09;;;2.10;100.00
596;BME280;19946;49.306;11.350;2023-03-15T10:17:15;96386.44;;;1.49;100.00
596;BME280;19946;49.306;11.350;2023-03-15T10:20:33;96429.31;;;1.60;100.00
596;BME280;19946;49.306;11.350;2023-03-15T10:23:52;96397.34;;;1.35;100.00
596;BME280;19946;49.306;11.350;2023-03-15T10:26:53;96408.06;;;1.59;100.00
596;BME280;19946;49.306;11.350;2023-03-15T10:29:55;96424.06;;;2.29;100.00
596;BME280;19946;49.306;11.350;2023-03-15T10:33:13;96408.38;;;3.43;100.00
596;BME280;19946;49.306;11.350;2023-03-15T10:36:22;96396.78;;;2.29;100.00
596;BME280;19946;49.306;11.350;2023-03-15T10:39:24;96420.19;;;2.22;100.00
596;BME280;19946;49.306;11.350;2023-03-15T10:42:32;96380.69;;;1.78;100.00
596;BME280;19946;49.306;11.350;2023-03-15T10:45:34;96406.44;;;1.74;100.00
596;BME280;19946;49.306;11.350;2023-03-15T10:51:57;96401.41;;;1.39;100.00
596;BME280;19946;49.306;11.350;2023-03-15T10:55:00;96380.81;;;1.60;100.00
596;BME280;19946;49.306;11.350;2023-03-15T11:01:23;96405.97;;;1.33;100.00
596;BME280;19946;49.306;11.350;2023-03-15T11:04:25;96397.63;;;1.46;100.00
596;BME280;19946;49.306;11.350;2023-03-15T11:07:34;96393.38;;;1.30;100.00
596;BME280;19946;49.306;11.350;2023-03-15T11:10:35;96385.63;;;1.31;100.00
596;BME280;19946;49.306;11.350;2023-03-15T11:13:37;96383.81;;;1.33;100.00
596;BME280;19946;49.306;11.350;2023-03-15T11:16:38;96409.41;;;1.32;100.00
596;BME280;19946;49.306;11.350;2023-03-15T11:19:41;96393.97;;;1.35;100.00
596;BME280;19946;49.306;11.350;2023-03-15T11:22:45;96371.97;;;1.15;100.00
596;BME280;19946;49.306;11.350;2023-03-15T11:25:46;96373.09;;;1.09;100.00
596;BME280;19946;49.306;11.350;2023-03-15T11:28:59;96415.81;;;1.40;100.00
596;BME280;19946;49.306;11.350;2023-03-15T11:35:24;96417.88;;;1.32;100.00
596;BME280;19946;49.306;11.350;2023-03-15T11:38:31;96398.13;;;1.01;100.00
596;BME280;19946;49.306;11.350;2023-03-15T11:41:41;96378.19;;;1.09;100.00
596;BME280;19946;49.306;11.350;2023-03-15T11:44:46;96401.13;;;1.09;100.00
596;BME280;19946;49.306;11.350;2023-03-15T11:47:52;96417.06;;;1.32;100.00
596;BME280;19946;49.306;11.350;2023-03-15T11:50:55;96409.47;;;1.13;100.00
596;BME280;19946;49.306;11.350;2023-03-15T11:54:17;96420.41;;;0.98;100.00
596;BME280;19946;49.306;11.350;2023-03-15T12:03:42;96415.41;;;1.14;100.00
596;BME280;19946;49.306;11.350;2023-03-15T12:06:44;96417.00;;;1.16;100.00
596;BME280;19946;49.306;11.350;2023-03-15T12:09:53;96405.13;;;1.32;100.00
596;BME280;19946;49.306;11.350;2023-03-15T12:13:14;96403.94;;;1.39;100.00
596;BME280;19946;49.306;11.350;2023-03-15T12:16:20;96395.69;;;1.34;100.00
596;BME280;19946;49.306;11.350;2023-03-15T12:19:23;96405.72;;;1.55;100.00
596;BME280;19946;49.306;11.350;2023-03-15T12:22:30;96403.31;;;1.52;100.00
596;BME280;19946;49.306;11.350;2023-03-15T12:25:36;96419.38;;;1.71;100.00
596;BME280;19946;49.306;11.350;2023-03-15T12:29:00;96383.72;;;1.52;100.00
596;BME280;19946;49.306;11.350;2023-03-15T12:35:15;96375.56;;;1.11;100.00
596;BME280;19946;49.306;11.350;2023-03-15T12:38:21;96378.38;;;0.88;100.00
596;BME280;19946;49.306;11.350;2023-03-15T12:41:44;96378.69;;;0.82;100.00
596;BME280;19946;49.306;11.350;2023-03-15T12:44:45;96423.56;;;1.03;100.00
596;BME280;19946;49.306;11.350;2023-03-15T12:51:42;96426.19;;;1.01;100.00
596;BME280;19946;49.306;11.350;2023-03-15T12:54:49;96414.75;;;0.74;100.00
596;BME280;19946;49.306;11.350;2023-03-15T12:57:51;96402.44;;;0.46;100.00
596;BME280;19946;49.306;11.350;2023-03-15T13:01:01;96378.66;;;-0.11;100.00
596;BME280;19946;49.306;11.350;2023-03-15T13:04:04;96370.47;;;-0.56;100.00
596;BME280;19946;49.306;11.350;2023-03-15T13:10:44;96437.94;;;-0.27;100.00
596;BME280;19946;49.306;11.350;2023-03-15T13:13:59;96436.41;;;-0.11;100.00
596;BME280;19946;49.306;11.350;2023-03-15T13:20:40;96446.63;;;0.26;100.00
596;BME280;19946;49.306;11.350;2023-03-15T13:23:42;96390.13;;;0.18;100.00
596;BME280;19946;49.306;11.350;2023-03-15T13:26:58;96409.59;;;0.38;100.00
596;BME280;19946;49.306;11.350;2023-03-15T13:30:23;96440.72;;;0.63;100.00
596;BME280;19946;49.306;11.350;2023-03-15T13:33:30;96415.38;;;0.60;100.00
596;BME280;19946;49.306;11.350;2023-03-15T13:36:41;96383.34;;;0.55;100.00
596;BME280;19946;49.306;11.350;2023-03-15T13:39:54;96413.59;;;0.62;100.00
596;BME280;19946;49.306;11.350;2023-03-15T13:42:59;96403.19;;;0.48;100.00
596;BME280;19946;49.306;11.350;2023-03-15T13:46:01;96442.22;;;0.67;100.00
596;BME280;19946;49.306;11.350;2023-03-15T13:49:01;96439.66;;;0.67;100.00
596;BME280;19946;49.306;11.350;2023-03-15T13:52:03;96447.81;;;0.76;100.00
596;BME280;19946;49.306;11.350;2023-03-15T13:55:14;96417.72;;;0.65;100.00
596;BME280;19946;49.306;11.350;2023-03-15T13:58:15;96439.50;;;0.89;100.00
596;BME280;19946;49.306;11.350;2023-03-15T14:01:16;96433.59;;;0.70;100.00
596;BME280;19946;49.306;11.350;2023-03-15T14:04:17;96404.34;;;0.60;100.00
596;BME280;19946;49.306;11.350;2023-03-15T14:07:23;96450.34;;;0.76;100.00
596;BME280;19946;49.306;11.350;2023-03-15T14:10:28;96453.00;;;0.91;100.00
596;BME280;19946;49.306;11.350;2023-03-15T14:13:32;96434.34;;;0.91;100.00
596;BME280;19946;49.306;11.350;2023-03-15T14:16:46;96402.34;;;0.66;100.00
596;BME280;19946;49.306;11.350;2023-03-15T14:19:54;96440.00;;;0.79;100.00
596;BME280;19946;49.306;11.350;2023-03-15T14:22:57;96457.88;;;1.15;100.00
596;BME280;19946;49.306;11.350;2023-03-15T14:29:45;96406.91;;;0.96;100.00
596;BME280;19946;49.306;11.350;2023-03-15T14:32:56;96446.84;;;1.14;100.00
596;BME280;19946;49.306;11.350;2023-03-15T14:36:00;96433.31;;;1.12;100.00
596;BME280;19946;49.306;11.350;2023-03-15T14:39:02;96383.69;;;0.47;100.00
596;BME280;19946;49.306;11.350;2023-03-15T14:42:02;96446.56;;;0.84;100.00
596;BME280;19946;49.306;11.350;2023-03-15T14:45:03;96445.50;;;0.88;100.00
596;BME280;19946;49.306;11.350;2023-03-15T14:48:11;96437.13;;;0.86;100.00
596;BME280;19946;49.306;11.350;2023-03-15T14:51:16;96401.44;;;0.67;100.00
596;BME280;19946;49.306;11.350;2023-03-15T14:54:17;96460.41;;;1.15;100.00
596;BME280;19946;49.306;11.350;2023-03-15T14:57:18;96446.94;;;0.94;100.00
596;BME280;19946;49.306;11.350;2023-03-15T15:00:18;96393.34;;;0.41;100.00
596;BME280;19946;49.306;11.350;2023-03-15T15:06:41;96423.47;;;0.68;100.00
596;BME280;19946;49.306;11.350;2023-03-15T15:09:50;96425.91;;;0.71;100.00
596;BME280;19946;49.306;11.350;2023-03-15T15:12:51;96423.28;;;0.73;100.00
596;BME280;19946;49.306;11.350;2023-03-15T15:15:52;96425.03;;;0.54;100.00
596;BME280;19946;49.306;11.350;2023-03-15T15:18:52;96440.56;;;0.48;100.00
596;BME280;19946;49.306;11.350;2023-03-15T15:21:53;96448.56;;;0.40;100.00
596;BME280;19946;49.306;11.350;2023-03-15T15:24:54;96435.34;;;0.32;100.00
596;BME280;19946;49.306;11.350;2023-03-15T15:27:55;96465.50;;;0.41;100.00
596;BME280;19946;49.306;11.350;2023-03-15T15:30:56;96454.00;;;0.32;100.00
596;BME280;19946;49.306;11.350;2023-03-15T15:33:56;96467.00;;;0.45;100.00
596;BME280;19946;49.306;11.350;2023-03-15T15:36:57;96449.53;;;0.38;100.00
596;BME280;19946;49.306;11.350;2023-03-15T15:39:57;96464.69;;;0.41;100.00
596;BME280;19946;49.306;11.350;2023-03-15T15:42:58;96468.00;;;0.61;100.00
596;BME280;19946;49.306;11.350;2023-03-15T15:45:59;96480.13;;;0.75;100.00
596;BME280;19946;49.306;11.350;2023-03-15T15:49:00;96483.00;;;0.86;100.00
596;BME280;19946;49.306;11.350;2023-03-15T15:52:01;96450.03;;;0.64;100.00
596;BME280;19946;49.306;11.350;2023-03-15T15:55:09;96455.78;;;0.68;100.00
596;BME280;19946;49.306;11.350;2023-03-15T15:58:11;96487.88;;;0.91;100.00
596;BME280;19946;49.306;11.350;2023-03-15T16:01:12;96475.69;;;0.60;100.00
596;BME280;19946;49.306;11.350;2023-03-15T16:04:13;96471.63;;;0.56;100.00
596;BME280;19946;49.306;11.350;2023-03-15T16:07:14;96472.31;;;0.78;100.00
596;BME280;19946;49.306;11.350;2023-03-15T16:10:21;96460.38;;;0.79;100.00
596;BME280;19946;49.306;11.350;2023-03-15T16:13:22;96476.97;;;0.87;100.00
596;BME280;19946;49.306;11.350;2023-03-15T16:16:23;96474.03;;;0.78;100.00
596;BME280;19946;49.306;11.350;2023-03-15T16:19:23;96497.81;;;0.59;100.00
596;BME280;19946;49.306;11.350;2023-03-15T16:22:24;96438.72;;;0.32;100.00
596;BME280;19946;49.306;11.350;2023-03-15T16:25:31;96468.06;;;0.41;100.00
596;BME280;19946;49.306;11.350;2023-03-15T16:28:34;96458.22;;;0.13;100.00
596;BME280;19946;49.306;11.350;2023-03-15T16:31:34;96473.94;;;0.23;100.00
596;BME280;19946;49.306;11.350;2023-03-15T16:34:34;96480.59;;;0.07;100.00
596;BME280;19946;49.306;11.350;2023-03-15T16:37:35;96479.91;;;0.22;100.00
596;BME280;19946;49.306;11.350;2023-03-15T16:40:38;96506.16;;;0.24;100.00
596;BME280;19946;49.306;11.350;2023-03-15T16:43:39;96533.78;;;0.33;100.00
596;BME280;19946;49.306;11.350;2023-03-15T16:46:41;96532.38;;;0.26;100.00
596;BME280;19946;49.306;11.350;2023-03-15T16:49:42;96529.22;;;0.21;100.00
596;BME280;19946;49.306;11.350;2023-03-15T16:52:44;96529.59;;;0.12;100.00
596;BME280;19946;49.306;11.350;2023-03-15T16:55:46;96517.13;;;-0.15;100.00
596;BME280;19946;49.306;11.350;2023-03-15T16:58:48;96548.19;;;-0.07;100.00
596;BME280;19946;49.306;11.350;2023-03-15T17:01:50;96555.25;;;-0.13;100.00
596;BME280;19946;49.306;11.350;2023-03-15T17:04:51;96519.28;;;-0.46;100.00
596;BME280;19946;49.306;11.350;2023-03-15T17:07:52;96517.38;;;-0.63;100.00
596;BME280;19946;49.306;11.350;2023-03-15T17:10:53;96562.53;;;-0.46;100.00
596;BME280;19946;49.306;11.350;2023-03-15T17:13:55;96514.38;;;-0.94;100.00
596;BME280;19946;49.306;11.350;2023-03-15T17:16:56;96572.81;;;-0.71;100.00
596;BME280;19946;49.306;11.350;2023-03-15T17:19:57;96547.63;;;-0.99;100.00
596;BME280;19946;49.306;11.350;2023-03-15T17:23:03;96573.59;;;-0.69;100.00
596;BME280;19946;49.306;11.350;2023-03-15T17:26:09;96591.41;;;-0.92;100.00